Cranford, NJ

7:56 AM EST on January 29, 2015 (GMT -0500)
Cranford (Subdivision: Floral Gardens) | Change Station
CLOSE
Current Station
Personal Weather Station
Location: Cranford, NJ
Elevation: 75 ft
Nearby Weather Stations

Elev 75 ft 40.64 °N, 74.31 °W | Updated 5 minutes ago

Clear
Clear
7.3 °F
Feels Like 7 °F
N
0.0
Wind Variable Wind from NNE

Today
High -- | Low -- °F
--% Chance of Precip.
Yesterday
High -- | Low -- °F
Precip. -- in
7:10 AM 5:11 PM
Waxing Gibbous, 74% visible
Pressure 30.37 in
Visibility 10.0 miles
Clouds Clear
Windchill 7 °F
Dew Point 7 °F
Humidity 98%
Rainfall 0.00 in
Snow Depth Not available.
UV 0 out of 12
Pollen .10 out of 12
Air Quality Not available.
Flu Activity Not available.
METAR KLDJ 291235Z AUTO 32003KT 10SM CLR M06/M15 A3037 RMK AO2 T10641146

More Conditions Fewer Conditions

Pressure 30.37 in
Visibility 10.0 miles
Clouds Clear
Windchill 7 °F
Dew Point 7 °F
Humidity 98%
Rainfall 0.00 in
Snow Depth Not available.
UV 0 out of 12
Pollen .10 out of 12
Air Quality Not available.
Flu Activity Not available.
METAR KLDJ 291235Z AUTO 32003KT 10SM CLR M06/M15 A3037 RMK AO2 T10641146

More Conditions Fewer Conditions

10-Day Weather Forecast

Almanac

Astronomy

Jan. 29, 2015 Rise Set
Actual Time
Civil Twilight
Nautical Twilight
Astronomical Twilight
Moon
Length of Visible Light
Length of Day
Tomorrow will be .
, % of the Moon is Illuminated

Today's Extremes

State Highs State Lows

Community

WunderPhotos

Upload Photos

1,791,420 photos uploaded!

WunderBlogs® & News

Nearby

Air Quality

  Air Quality AQ Index Pollutant
Not available.

Snow Depth

Station Depth Elevation

Earthquake Activity

City Distance Mag. Time & Date
Minimum magnitude displayed is 2.5.

Coastal Water Temperatures

Place Temperature

Nearby Weather Stations